ENAL/AES METAR and TAF weather

Enter ICAO airport designator
Station Type Date Time Source
ENAL METAR 2018/10/22 17:20 UTC NOAA

ENAL 221720Z 18009KT 9999 -RA FEW012 BKN025 05/03 Q1001


Station Type Date Time Source
ENAL Decoded METAR 2018/10/22 17:20 UTC NOAA

Alesund / Vigra, Norway (ENAL) 62-34N 006-07E 22M
Oct 22, 2018 - 01:20 PM EDT / 2018.10.22 1720 UTC
Wind: from the S (180 degrees) at 10 MPH (9 KT):0
Visibility: greater than 7 mile(s):0
Sky conditions: mostly cloudy
Weather: light rain
Temperature: 41 F (5 C)
Dew Point: 37 F (3 C)
Relative Humidity: 86%
Pressure (altimeter): 29.56 in. Hg (1001 hPa)
ob: ENAL 221720Z 18009KT 9999 -RA FEW012 BKN025 05/03 Q1001
cycle: 17

Station Type Date Time Source
ENAL TAF UTC NOAA

Error!


Example: see airport list